sensor_id;sensor_type;location;lat;lon;timestamp;P1;durP1;ratioP1;P2;durP2;ratioP2
4696;SDS011;2362;50.780;0.292;2023-08-21T00:01:58;16.80;;;4.80;;
4696;SDS011;2362;50.780;0.292;2023-08-21T00:04:24;18.23;;;5.03;;
4696;SDS011;2362;50.780;0.292;2023-08-21T00:06:49;17.60;;;4.40;;
4696;SDS011;2362;50.780;0.292;2023-08-21T00:09:15;29.25;;;5.22;;
4696;SDS011;2362;50.780;0.292;2023-08-21T00:11:41;24.23;;;4.88;;
4696;SDS011;2362;50.780;0.292;2023-08-21T00:14:06;23.27;;;5.95;;
4696;SDS011;2362;50.780;0.292;2023-08-21T00:16:32;21.25;;;4.10;;
4696;SDS011;2362;50.780;0.292;2023-08-21T00:18:58;26.35;;;5.03;;
4696;SDS011;2362;50.780;0.292;2023-08-21T00:21:23;26.45;;;5.47;;
4696;SDS011;2362;50.780;0.292;2023-08-21T00:23:49;20.17;;;5.13;;
4696;SDS011;2362;50.780;0.292;2023-08-21T00:26:14;18.92;;;4.53;;
4696;SDS011;2362;50.780;0.292;2023-08-21T00:28:40;29.02;;;6.22;;
4696;SDS011;2362;50.780;0.292;2023-08-21T00:31:06;27.33;;;4.93;;
4696;SDS011;2362;50.780;0.292;2023-08-21T00:33:32;16.70;;;4.63;;
4696;SDS011;2362;50.780;0.292;2023-08-21T00:35:58;24.55;;;4.85;;
4696;SDS011;2362;50.780;0.292;2023-08-21T00:38:24;19.60;;;4.32;;
4696;SDS011;2362;50.780;0.292;2023-08-21T00:40:50;18.00;;;4.75;;
4696;SDS011;2362;50.780;0.292;2023-08-21T00:43:16;18.55;;;4.28;;
4696;SDS011;2362;50.780;0.292;2023-08-21T00:45:42;18.45;;;4.25;;
4696;SDS011;2362;50.780;0.292;2023-08-21T00:48:09;13.20;;;3.70;;
4696;SDS011;2362;50.780;0.292;2023-08-21T00:50:36;23.73;;;5.55;;
4696;SDS011;2362;50.780;0.292;2023-08-21T00:53:03;23.55;;;4.57;;
4696;SDS011;2362;50.780;0.292;2023-08-21T00:55:30;13.98;;;3.80;;
4696;SDS011;2362;50.780;0.292;2023-08-21T00:57:56;26.80;;;3.88;;
4696;SDS011;2362;50.780;0.292;2023-08-21T01:00:24;23.95;;;4.40;;
4696;SDS011;2362;50.780;0.292;2023-08-21T01:02:51;19.25;;;4.50;;
4696;SDS011;2362;50.780;0.292;2023-08-21T01:05:18;19.95;;;4.32;;
4696;SDS011;2362;50.780;0.292;2023-08-21T01:07:57;21.45;;;3.70;;
4696;SDS011;2362;50.780;0.292;2023-08-21T01:13:11;23.15;;;4.38;;
4696;SDS011;2362;50.780;0.292;2023-08-21T01:16:03;18.88;;;4.93;;
4696;SDS011;2362;50.780;0.292;2023-08-21T01:18:30;18.50;;;3.58;;
4696;SDS011;2362;50.780;0.292;2023-08-21T01:20:57;21.17;;;4.22;;
4696;SDS011;2362;50.780;0.292;2023-08-21T01:23:31;16.80;;;3.95;;
4696;SDS011;2362;50.780;0.292;2023-08-21T01:26:00;12.90;;;3.53;;
4696;SDS011;2362;50.780;0.292;2023-08-21T01:28:26;25.75;;;4.18;;
4696;SDS011;2362;50.780;0.292;2023-08-21T01:30:55;27.33;;;5.03;;
4696;SDS011;2362;50.780;0.292;2023-08-21T01:33:26;20.75;;;4.80;;
4696;SDS011;2362;50.780;0.292;2023-08-21T01:35:56;28.35;;;4.75;;
4696;SDS011;2362;50.780;0.292;2023-08-21T01:38:23;24.60;;;3.67;;
4696;SDS011;2362;50.780;0.292;2023-08-21T01:40:50;19.75;;;3.72;;
4696;SDS011;2362;50.780;0.292;2023-08-21T01:43:15;16.48;;;3.65;;
4696;SDS011;2362;50.780;0.292;2023-08-21T01:45:41;22.52;;;4.35;;
4696;SDS011;2362;50.780;0.292;2023-08-21T01:48:06;21.90;;;4.90;;
4696;SDS011;2362;50.780;0.292;2023-08-21T01:50:32;14.52;;;4.20;;
4696;SDS011;2362;50.780;0.292;2023-08-21T01:52:58;23.63;;;4.22;;
4696;SDS011;2362;50.780;0.292;2023-08-21T01:55:24;19.60;;;4.07;;
4696;SDS011;2362;50.780;0.292;2023-08-21T01:57:49;23.60;;;4.28;;
4696;SDS011;2362;50.780;0.292;2023-08-21T02:00:15;10.70;;;4.28;;
4696;SDS011;2362;50.780;0.292;2023-08-21T02:02:40;26.55;;;4.00;;
4696;SDS011;2362;50.780;0.292;2023-08-21T02:05:06;17.17;;;4.28;;
4696;SDS011;2362;50.780;0.292;2023-08-21T02:07:32;16.80;;;4.72;;
4696;SDS011;2362;50.780;0.292;2023-08-21T02:09:57;34.85;;;5.85;;
4696;SDS011;2362;50.780;0.292;2023-08-21T02:12:23;13.60;;;3.72;;
4696;SDS011;2362;50.780;0.292;2023-08-21T02:14:49;31.60;;;5.40;;
4696;SDS011;2362;50.780;0.292;2023-08-21T02:17:14;25.00;;;4.68;;
4696;SDS011;2362;50.780;0.292;2023-08-21T02:19:40;28.88;;;5.32;;
4696;SDS011;2362;50.780;0.292;2023-08-21T02:22:06;15.23;;;4.30;;
4696;SDS011;2362;50.780;0.292;2023-08-21T02:24:31;30.67;;;4.88;;
4696;SDS011;2362;50.780;0.292;2023-08-21T02:26:57;21.13;;;3.85;;
4696;SDS011;2362;50.780;0.292;2023-08-21T02:29:22;10.07;;;3.17;;
4696;SDS011;2362;50.780;0.292;2023-08-21T02:31:48;16.83;;;4.20;;
4696;SDS011;2362;50.780;0.292;2023-08-21T02:34:14;16.45;;;4.20;;
4696;SDS011;2362;50.780;0.292;2023-08-21T02:36:39;20.35;;;3.85;;
4696;SDS011;2362;50.780;0.292;2023-08-21T02:39:05;17.75;;;3.92;;
4696;SDS011;2362;50.780;0.292;2023-08-21T02:41:30;34.70;;;5.10;;
4696;SDS011;2362;50.780;0.292;2023-08-21T02:43:56;18.52;;;4.30;;
4696;SDS011;2362;50.780;0.292;2023-08-21T02:46:22;21.20;;;5.32;;
4696;SDS011;2362;50.780;0.292;2023-08-21T02:48:47;14.02;;;4.10;;
4696;SDS011;2362;50.780;0.292;2023-08-21T02:51:13;21.20;;;3.97;;
4696;SDS011;2362;50.780;0.292;2023-08-21T02:53:38;8.85;;;3.30;;
4696;SDS011;2362;50.780;0.292;2023-08-21T02:56:04;15.35;;;4.00;;
4696;SDS011;2362;50.780;0.292;2023-08-21T02:58:30;17.05;;;5.05;;
4696;SDS011;2362;50.780;0.292;2023-08-21T03:00:55;15.65;;;3.85;;
4696;SDS011;2362;50.780;0.292;2023-08-21T03:03:21;21.23;;;4.20;;
4696;SDS011;2362;50.780;0.292;2023-08-21T03:05:47;16.73;;;4.03;;
4696;SDS011;2362;50.780;0.292;2023-08-21T03:08:13;16.73;;;4.55;;
4696;SDS011;2362;50.780;0.292;2023-08-21T03:10:38;18.88;;;4.38;;
4696;SDS011;2362;50.780;0.292;2023-08-21T03:13:04;19.95;;;4.03;;
4696;SDS011;2362;50.780;0.292;2023-08-21T03:15:30;25.88;;;4.13;;
4696;SDS011;2362;50.780;0.292;2023-08-21T03:17:56;17.35;;;4.68;;
4696;SDS011;2362;50.780;0.292;2023-08-21T03:20:21;15.50;;;4.57;;
4696;SDS011;2362;50.780;0.292;2023-08-21T03:22:47;23.92;;;4.65;;
4696;SDS011;2362;50.780;0.292;2023-08-21T03:25:12;14.38;;;3.97;;
4696;SDS011;2362;50.780;0.292;2023-08-21T03:27:38;17.63;;;3.97;;
4696;SDS011;2362;50.780;0.292;2023-08-21T03:30:07;15.90;;;4.28;;
4696;SDS011;2362;50.780;0.292;2023-08-21T03:32:33;18.02;;;4.15;;
4696;SDS011;2362;50.780;0.292;2023-08-21T03:34:59;21.02;;;4.38;;
4696;SDS011;2362;50.780;0.292;2023-08-21T03:37:25;22.20;;;4.70;;
4696;SDS011;2362;50.780;0.292;2023-08-21T03:39:50;19.25;;;4.75;;
4696;SDS011;2362;50.780;0.292;2023-08-21T03:42:16;17.20;;;4.32;;
4696;SDS011;2362;50.780;0.292;2023-08-21T03:44:42;19.33;;;4.45;;
4696;SDS011;2362;50.780;0.292;2023-08-21T03:47:07;16.30;;;3.75;;
4696;SDS011;2362;50.780;0.292;2023-08-21T03:49:33;24.35;;;3.85;;
4696;SDS011;2362;50.780;0.292;2023-08-21T03:51:59;22.30;;;4.32;;
4696;SDS011;2362;50.780;0.292;2023-08-21T03:54:24;25.85;;;4.30;;
4696;SDS011;2362;50.780;0.292;2023-08-21T03:56:50;21.42;;;3.92;;
4696;SDS011;2362;50.780;0.292;2023-08-21T03:59:16;23.80;;;4.03;;
4696;SDS011;2362;50.780;0.292;2023-08-21T04:01:41;17.33;;;3.85;;
4696;SDS011;2362;50.780;0.292;2023-08-21T04:04:07;20.13;;;5.35;;
4696;SDS011;2362;50.780;0.292;2023-08-21T04:06:32;20.13;;;5.15;;
4696;SDS011;2362;50.780;0.292;2023-08-21T04:08:58;20.92;;;5.95;;
4696;SDS011;2362;50.780;0.292;2023-08-21T04:11:24;20.95;;;5.78;;
4696;SDS011;2362;50.780;0.292;2023-08-21T04:13:49;22.17;;;5.85;;
4696;SDS011;2362;50.780;0.292;2023-08-21T04:16:15;22.80;;;5.65;;
4696;SDS011;2362;50.780;0.292;2023-08-21T04:18:42;21.60;;;6.57;;
4696;SDS011;2362;50.780;0.292;2023-08-21T04:21:08;19.35;;;6.65;;
4696;SDS011;2362;50.780;0.292;2023-08-21T04:23:35;26.45;;;8.00;;
4696;SDS011;2362;50.780;0.292;2023-08-21T04:26:01;29.63;;;8.63;;
4696;SDS011;2362;50.780;0.292;2023-08-21T04:28:30;21.55;;;8.32;;
4696;SDS011;2362;50.780;0.292;2023-08-21T04:30:56;26.30;;;7.50;;
4696;SDS011;2362;50.780;0.292;2023-08-21T04:33:24;23.20;;;7.40;;
4696;SDS011;2362;50.780;0.292;2023-08-21T04:35:53;25.92;;;8.48;;
4696;SDS011;2362;50.780;0.292;2023-08-21T04:38:18;26.45;;;8.07;;
4696;SDS011;2362;50.780;0.292;2023-08-21T04:40:44;20.77;;;8.43;;
4696;SDS011;2362;50.780;0.292;2023-08-21T04:43:10;26.92;;;8.60;;
4696;SDS011;2362;50.780;0.292;2023-08-21T04:45:36;28.48;;;8.93;;
4696;SDS011;2362;50.780;0.292;2023-08-21T04:48:03;23.55;;;8.43;;
4696;SDS011;2362;50.780;0.292;2023-08-21T04:50:32;22.10;;;7.65;;
4696;SDS011;2362;50.780;0.292;2023-08-21T04:52:58;23.48;;;8.55;;
4696;SDS011;2362;50.780;0.292;2023-08-21T04:55:23;34.70;;;8.18;;
4696;SDS011;2362;50.780;0.292;2023-08-21T04:57:49;18.83;;;8.57;;
4696;SDS011;2362;50.780;0.292;2023-08-21T05:00:15;27.20;;;8.57;;
4696;SDS011;2362;50.780;0.292;2023-08-21T05:02:41;23.45;;;8.77;;
4696;SDS011;2362;50.780;0.292;2023-08-21T05:05:06;22.98;;;8.43;;
4696;SDS011;2362;50.780;0.292;2023-08-21T05:07:34;29.23;;;8.18;;
4696;SDS011;2362;50.780;0.292;2023-08-21T05:10:00;28.02;;;8.35;;
4696;SDS011;2362;50.780;0.292;2023-08-21T05:12:26;28.35;;;8.50;;
4696;SDS011;2362;50.780;0.292;2023-08-21T05:14:51;30.10;;;8.32;;
4696;SDS011;2362;50.780;0.292;2023-08-21T05:17:17;21.52;;;7.97;;
4696;SDS011;2362;50.780;0.292;2023-08-21T05:19:42;19.98;;;7.97;;
4696;SDS011;2362;50.780;0.292;2023-08-21T05:22:08;17.70;;;7.40;;
4696;SDS011;2362;50.780;0.292;2023-08-21T05:24:34;18.90;;;7.90;;
4696;SDS011;2362;50.780;0.292;2023-08-21T05:26:59;23.52;;;8.13;;
4696;SDS011;2362;50.780;0.292;2023-08-21T05:29:25;20.25;;;7.88;;
4696;SDS011;2362;50.780;0.292;2023-08-21T05:31:51;26.27;;;8.32;;
4696;SDS011;2362;50.780;0.292;2023-08-21T05:34:16;24.42;;;8.68;;
4696;SDS011;2362;50.780;0.292;2023-08-21T05:36:42;22.52;;;8.15;;
4696;SDS011;2362;50.780;0.292;2023-08-21T05:39:07;31.23;;;8.73;;
4696;SDS011;2362;50.780;0.292;2023-08-21T05:41:33;17.70;;;7.72;;
4696;SDS011;2362;50.780;0.292;2023-08-21T05:43:59;25.73;;;7.70;;
4696;SDS011;2362;50.780;0.292;2023-08-21T05:46:24;21.77;;;9.13;;
4696;SDS011;2362;50.780;0.292;2023-08-21T05:48:50;17.88;;;7.65;;
4696;SDS011;2362;50.780;0.292;2023-08-21T05:51:16;20.40;;;8.48;;
4696;SDS011;2362;50.780;0.292;2023-08-21T05:53:41;17.92;;;7.32;;
4696;SDS011;2362;50.780;0.292;2023-08-21T05:56:07;29.83;;;8.60;;
4696;SDS011;2362;50.780;0.292;2023-08-21T05:58:32;21.42;;;7.78;;
4696;SDS011;2362;50.780;0.292;2023-08-21T06:00:58;22.95;;;7.78;;
4696;SDS011;2362;50.780;0.292;2023-08-21T06:03:24;17.85;;;7.00;;
4696;SDS011;2362;50.780;0.292;2023-08-21T06:05:49;20.13;;;7.32;;
4696;SDS011;2362;50.780;0.292;2023-08-21T06:08:15;19.23;;;7.63;;
4696;SDS011;2362;50.780;0.292;2023-08-21T06:10:41;22.63;;;7.38;;
4696;SDS011;2362;50.780;0.292;2023-08-21T06:13:07;19.85;;;7.85;;
4696;SDS011;2362;50.780;0.292;2023-08-21T06:15:33;27.45;;;9.48;;
4696;SDS011;2362;50.780;0.292;2023-08-21T06:17:58;20.25;;;6.88;;
4696;SDS011;2362;50.780;0.292;2023-08-21T06:20:25;22.55;;;6.75;;
4696;SDS011;2362;50.780;0.292;2023-08-21T06:22:51;18.08;;;6.43;;
4696;SDS011;2362;50.780;0.292;2023-08-21T06:25:16;18.48;;;7.68;;
4696;SDS011;2362;50.780;0.292;2023-08-21T06:27:44;18.25;;;7.38;;
4696;SDS011;2362;50.780;0.292;2023-08-21T06:30:10;16.13;;;6.13;;
4696;SDS011;2362;50.780;0.292;2023-08-21T06:32:36;15.38;;;6.18;;
4696;SDS011;2362;50.780;0.292;2023-08-21T06:35:01;21.42;;;8.65;;
4696;SDS011;2362;50.780;0.292;2023-08-21T06:37:27;19.23;;;7.40;;
4696;SDS011;2362;50.780;0.292;2023-08-21T06:39:53;17.95;;;7.20;;
4696;SDS011;2362;50.780;0.292;2023-08-21T06:42:18;25.52;;;7.40;;
4696;SDS011;2362;50.780;0.292;2023-08-21T06:44:44;19.25;;;6.35;;
4696;SDS011;2362;50.780;0.292;2023-08-21T06:47:09;18.85;;;5.75;;
4696;SDS011;2362;50.780;0.292;2023-08-21T06:49:35;15.57;;;4.70;;
4696;SDS011;2362;50.780;0.292;2023-08-21T06:52:01;15.35;;;3.80;;
4696;SDS011;2362;50.780;0.292;2023-08-21T06:54:28;17.85;;;3.55;;
4696;SDS011;2362;50.780;0.292;2023-08-21T06:56:53;26.00;;;4.43;;
4696;SDS011;2362;50.780;0.292;2023-08-21T06:59:19;13.05;;;4.40;;
4696;SDS011;2362;50.780;0.292;2023-08-21T07:01:44;18.38;;;4.47;;
4696;SDS011;2362;50.780;0.292;2023-08-21T07:04:10;17.80;;;4.32;;
4696;SDS011;2362;50.780;0.292;2023-08-21T07:06:36;12.95;;;2.97;;
4696;SDS011;2362;50.780;0.292;2023-08-21T07:09:01;15.77;;;4.07;;
4696;SDS011;2362;50.780;0.292;2023-08-21T07:11:27;15.50;;;3.47;;
4696;SDS011;2362;50.780;0.292;2023-08-21T07:13:53;6.75;;;2.88;;
4696;SDS011;2362;50.780;0.292;2023-08-21T07:16:18;17.73;;;4.22;;
4696;SDS011;2362;50.780;0.292;2023-08-21T07:18:44;9.95;;;2.83;;
4696;SDS011;2362;50.780;0.292;2023-08-21T07:21:09;23.27;;;3.67;;
4696;SDS011;2362;50.780;0.292;2023-08-21T07:23:35;11.40;;;2.70;;
4696;SDS011;2362;50.780;0.292;2023-08-21T07:26:01;15.05;;;2.85;;
4696;SDS011;2362;50.780;0.292;2023-08-21T07:28:27;19.38;;;2.88;;
4696;SDS011;2362;50.780;0.292;2023-08-21T07:30:56;15.40;;;3.40;;
4696;SDS011;2362;50.780;0.292;2023-08-21T07:33:23;17.77;;;3.25;;
4696;SDS011;2362;50.780;0.292;2023-08-21T07:36:02;10.50;;;2.67;;
4696;SDS011;2362;50.780;0.292;2023-08-21T07:38:29;12.80;;;2.53;;
4696;SDS011;2362;50.780;0.292;2023-08-21T07:41:02;15.18;;;3.35;;
4696;SDS011;2362;50.780;0.292;2023-08-21T07:43:40;15.90;;;2.40;;
4696;SDS011;2362;50.780;0.292;2023-08-21T07:46:08;11.55;;;2.45;;
4696;SDS011;2362;50.780;0.292;2023-08-21T07:48:38;14.00;;;3.13;;
4696;SDS011;2362;50.780;0.292;2023-08-21T07:51:04;15.07;;;2.80;;
4696;SDS011;2362;50.780;0.292;2023-08-21T07:53:29;12.05;;;2.47;;
4696;SDS011;2362;50.780;0.292;2023-08-21T07:55:56;12.40;;;3.15;;
4696;SDS011;2362;50.780;0.292;2023-08-21T07:58:23;13.93;;;2.72;;
4696;SDS011;2362;50.780;0.292;2023-08-21T08:00:48;10.18;;;2.75;;
4696;SDS011;2362;50.780;0.292;2023-08-21T08:03:14;16.73;;;2.40;;
4696;SDS011;2362;50.780;0.292;2023-08-21T08:05:40;15.23;;;2.53;;
4696;SDS011;2362;50.780;0.292;2023-08-21T08:08:09;14.38;;;2.60;;
4696;SDS011;2362;50.780;0.292;2023-08-21T08:10:38;8.23;;;2.05;;
4696;SDS011;2362;50.780;0.292;2023-08-21T08:13:05;12.77;;;1.75;;
4696;SDS011;2362;50.780;0.292;2023-08-21T08:15:31;12.77;;;1.98;;
4696;SDS011;2362;50.780;0.292;2023-08-21T08:17:57;3.65;;;1.48;;
4696;SDS011;2362;50.780;0.292;2023-08-21T08:20:22;15.68;;;2.40;;
4696;SDS011;2362;50.780;0.292;2023-08-21T08:22:48;13.10;;;1.88;;
4696;SDS011;2362;50.780;0.292;2023-08-21T08:25:14;11.45;;;1.95;;
4696;SDS011;2362;50.780;0.292;2023-08-21T08:27:40;10.38;;;2.35;;
4696;SDS011;2362;50.780;0.292;2023-08-21T08:30:06;17.73;;;2.10;;
4696;SDS011;2362;50.780;0.292;2023-08-21T08:32:33;8.73;;;1.55;;
4696;SDS011;2362;50.780;0.292;2023-08-21T08:34:59;8.55;;;1.60;;
4696;SDS011;2362;50.780;0.292;2023-08-21T08:37:24;10.27;;;1.92;;
4696;SDS011;2362;50.780;0.292;2023-08-21T08:39:50;4.50;;;1.40;;
4696;SDS011;2362;50.780;0.292;2023-08-21T08:42:16;9.75;;;1.92;;
4696;SDS011;2362;50.780;0.292;2023-08-21T08:44:42;11.30;;;1.73;;
4696;SDS011;2362;50.780;0.292;2023-08-21T08:47:09;9.25;;;1.73;;
4696;SDS011;2362;50.780;0.292;2023-08-21T08:49:36;13.00;;;1.67;;
4696;SDS011;2362;50.780;0.292;2023-08-21T08:52:02;18.75;;;2.35;;
4696;SDS011;2362;50.780;0.292;2023-08-21T08:54:28;12.10;;;1.83;;
4696;SDS011;2362;50.780;0.292;2023-08-21T08:56:56;17.17;;;2.22;;
4696;SDS011;2362;50.780;0.292;2023-08-21T08:59:22;9.50;;;1.80;;
4696;SDS011;2362;50.780;0.292;2023-08-21T09:01:47;11.68;;;2.35;;
4696;SDS011;2362;50.780;0.292;2023-08-21T09:04:13;9.60;;;2.03;;
4696;SDS011;2362;50.780;0.292;2023-08-21T09:06:39;5.82;;;1.17;;
4696;SDS011;2362;50.780;0.292;2023-08-21T09:09:05;12.80;;;2.35;;
4696;SDS011;2362;50.780;0.292;2023-08-21T09:11:33;9.27;;;2.33;;
4696;SDS011;2362;50.780;0.292;2023-08-21T09:13:59;8.80;;;1.27;;
4696;SDS011;2362;50.780;0.292;2023-08-21T09:16:25;12.63;;;2.22;;
4696;SDS011;2362;50.780;0.292;2023-08-21T09:18:57;5.55;;;1.15;;
4696;SDS011;2362;50.780;0.292;2023-08-21T09:21:24;8.77;;;1.70;;
4696;SDS011;2362;50.780;0.292;2023-08-21T09:23:55;10.48;;;1.77;;
4696;SDS011;2362;50.780;0.292;2023-08-21T09:26:23;7.75;;;1.73;;
4696;SDS011;2362;50.780;0.292;2023-08-21T09:28:50;11.15;;;1.33;;
4696;SDS011;2362;50.780;0.292;2023-08-21T09:31:23;10.77;;;1.48;;
4696;SDS011;2362;50.780;0.292;2023-08-21T09:33:56;7.95;;;1.63;;
4696;SDS011;2362;50.780;0.292;2023-08-21T09:36:22;8.65;;;1.90;;
4696;SDS011;2362;50.780;0.292;2023-08-21T09:38:50;6.78;;;1.42;;
4696;SDS011;2362;50.780;0.292;2023-08-21T09:41:18;11.25;;;2.40;;
4696;SDS011;2362;50.780;0.292;2023-08-21T09:43:45;21.98;;;5.10;;
4696;SDS011;2362;50.780;0.292;2023-08-21T09:46:13;11.85;;;3.13;;
4696;SDS011;2362;50.780;0.292;2023-08-21T09:48:41;11.20;;;2.78;;
4696;SDS011;2362;50.780;0.292;2023-08-21T09:51:08;15.40;;;2.65;;
4696;SDS011;2362;50.780;0.292;2023-08-21T09:53:35;6.97;;;1.60;;
4696;SDS011;2362;50.780;0.292;2023-08-21T09:56:01;11.18;;;1.58;;
4696;SDS011;2362;50.780;0.292;2023-08-21T09:58:28;11.63;;;2.13;;
4696;SDS011;2362;50.780;0.292;2023-08-21T10:00:56;8.23;;;1.98;;
4696;SDS011;2362;50.780;0.292;2023-08-21T10:03:22;5.15;;;1.60;;
4696;SDS011;2362;50.780;0.292;2023-08-21T10:05:49;4.55;;;1.33;;
4696;SDS011;2362;50.780;0.292;2023-08-21T10:08:17;6.88;;;1.30;;
4696;SDS011;2362;50.780;0.292;2023-08-21T10:10:47;9.52;;;1.50;;
4696;SDS011;2362;50.780;0.292;2023-08-21T10:13:13;9.98;;;1.48;;
4696;SDS011;2362;50.780;0.292;2023-08-21T10:15:38;16.60;;;2.20;;
4696;SDS011;2362;50.780;0.292;2023-08-21T10:18:17;9.88;;;1.80;;
4696;SDS011;2362;50.780;0.292;2023-08-21T10:20:48;6.07;;;1.38;;
4696;SDS011;2362;50.780;0.292;2023-08-21T10:23:24;7.80;;;1.70;;
4696;SDS011;2362;50.780;0.292;2023-08-21T10:26:00;12.18;;;2.22;;
4696;SDS011;2362;50.780;0.292;2023-08-21T10:34:01;9.27;;;1.60;;
4696;SDS011;2362;50.780;0.292;2023-08-21T10:36:38;5.28;;;1.48;;
4696;SDS011;2362;50.780;0.292;2023-08-21T10:42:02;10.30;;;1.73;;
4696;SDS011;2362;50.780;0.292;2023-08-21T10:44:36;9.30;;;1.40;;
4696;SDS011;2362;50.780;0.292;2023-08-21T10:47:12;9.77;;;2.22;;
4696;SDS011;2362;50.780;0.292;2023-08-21T10:49:44;10.40;;;1.40;;
4696;SDS011;2362;50.780;0.292;2023-08-21T10:52:10;6.22;;;1.40;;
4696;SDS011;2362;50.780;0.292;2023-08-21T10:54:56;5.10;;;1.15;;
4696;SDS011;2362;50.780;0.292;2023-08-21T10:57:23;8.00;;;1.83;;
4696;SDS011;2362;50.780;0.292;2023-08-21T10:59:56;8.18;;;1.95;;
4696;SDS011;2362;50.780;0.292;2023-08-21T11:02:30;7.72;;;1.55;;
4696;SDS011;2362;50.780;0.292;2023-08-21T11:04:57;10.75;;;1.65;;
4696;SDS011;2362;50.780;0.292;2023-08-21T11:07:24;5.43;;;1.27;;
4696;SDS011;2362;50.780;0.292;2023-08-21T11:09:50;4.88;;;1.40;;
4696;SDS011;2362;50.780;0.292;2023-08-21T11:12:17;9.90;;;1.88;;
4696;SDS011;2362;50.780;0.292;2023-08-21T11:14:44;8.95;;;1.55;;
4696;SDS011;2362;50.780;0.292;2023-08-21T11:17:10;10.88;;;2.03;;
4696;SDS011;2362;50.780;0.292;2023-08-21T11:19:37;5.72;;;1.60;;
4696;SDS011;2362;50.780;0.292;2023-08-21T11:22:03;10.93;;;2.08;;
4696;SDS011;2362;50.780;0.292;2023-08-21T11:27:09;9.63;;;1.13;;
4696;SDS011;2362;50.780;0.292;2023-08-21T11:29:47;4.47;;;1.48;;
4696;SDS011;2362;50.780;0.292;2023-08-21T11:32:15;8.32;;;1.50;;
4696;SDS011;2362;50.780;0.292;2023-08-21T11:34:46;12.95;;;2.13;;
4696;SDS011;2362;50.780;0.292;2023-08-21T11:37:13;17.40;;;1.85;;
4696;SDS011;2362;50.780;0.292;2023-08-21T11:42:12;11.18;;;1.63;;
4696;SDS011;2362;50.780;0.292;2023-08-21T11:44:42;6.97;;;1.20;;
4696;SDS011;2362;50.780;0.292;2023-08-21T11:47:10;5.95;;;1.20;;
4696;SDS011;2362;50.780;0.292;2023-08-21T11:49:36;10.48;;;1.55;;
4696;SDS011;2362;50.780;0.292;2023-08-21T11:52:03;7.05;;;1.45;;
4696;SDS011;2362;50.780;0.292;2023-08-21T11:54:33;7.95;;;1.27;;
4696;SDS011;2362;50.780;0.292;2023-08-21T11:57:08;9.18;;;1.65;;
4696;SDS011;2362;50.780;0.292;2023-08-21T11:59:38;5.63;;;1.25;;
4696;SDS011;2362;50.780;0.292;2023-08-21T12:02:13;7.82;;;1.92;;
4696;SDS011;2362;50.780;0.292;2023-08-21T12:04:40;10.18;;;2.65;;
4696;SDS011;2362;50.780;0.292;2023-08-21T12:07:07;6.68;;;1.33;;
4696;SDS011;2362;50.780;0.292;2023-08-21T12:09:33;8.90;;;1.88;;
4696;SDS011;2362;50.780;0.292;2023-08-21T12:11:58;14.48;;;2.05;;
4696;SDS011;2362;50.780;0.292;2023-08-21T12:14:24;9.98;;;2.03;;
4696;SDS011;2362;50.780;0.292;2023-08-21T12:16:50;10.50;;;1.42;;
4696;SDS011;2362;50.780;0.292;2023-08-21T12:19:16;6.57;;;1.20;;
4696;SDS011;2362;50.780;0.292;2023-08-21T12:21:41;8.40;;;1.30;;
4696;SDS011;2362;50.780;0.292;2023-08-21T12:24:07;9.88;;;1.35;;
4696;SDS011;2362;50.780;0.292;2023-08-21T12:26:33;7.40;;;1.60;;
4696;SDS011;2362;50.780;0.292;2023-08-21T12:28:59;5.75;;;1.15;;
4696;SDS011;2362;50.780;0.292;2023-08-21T12:31:25;12.60;;;1.95;;
4696;SDS011;2362;50.780;0.292;2023-08-21T12:33:51;12.77;;;2.45;;
4696;SDS011;2362;50.780;0.292;2023-08-21T12:36:17;7.05;;;1.75;;
4696;SDS011;2362;50.780;0.292;2023-08-21T12:38:42;10.43;;;2.03;;
4696;SDS011;2362;50.780;0.292;2023-08-21T12:41:08;10.23;;;1.52;;
4696;SDS011;2362;50.780;0.292;2023-08-21T12:43:33;8.57;;;1.30;;
4696;SDS011;2362;50.780;0.292;2023-08-21T12:45:59;7.43;;;1.38;;
4696;SDS011;2362;50.780;0.292;2023-08-21T12:48:25;8.32;;;1.52;;
4696;SDS011;2362;50.780;0.292;2023-08-21T12:51:05;6.28;;;1.20;;
4696;SDS011;2362;50.780;0.292;2023-08-21T12:53:51;8.50;;;1.38;;
4696;SDS011;2362;50.780;0.292;2023-08-21T12:56:36;8.85;;;2.20;;
4696;SDS011;2362;50.780;0.292;2023-08-21T12:59:22;10.63;;;1.90;;
4696;SDS011;2362;50.780;0.292;2023-08-21T13:01:48;8.57;;;1.40;;
4696;SDS011;2362;50.780;0.292;2023-08-21T13:04:16;9.30;;;1.55;;
4696;SDS011;2362;50.780;0.292;2023-08-21T13:07:04;8.88;;;1.80;;
4696;SDS011;2362;50.780;0.292;2023-08-21T13:09:46;10.77;;;1.70;;
4696;SDS011;2362;50.780;0.292;2023-08-21T13:12:25;8.73;;;1.50;;
4696;SDS011;2362;50.780;0.292;2023-08-21T13:14:51;8.73;;;1.65;;
4696;SDS011;2362;50.780;0.292;2023-08-21T13:17:17;14.57;;;2.25;;
4696;SDS011;2362;50.780;0.292;2023-08-21T13:19:43;11.27;;;2.20;;
4696;SDS011;2362;50.780;0.292;2023-08-21T13:22:08;7.50;;;1.83;;
4696;SDS011;2362;50.780;0.292;2023-08-21T13:24:34;10.27;;;1.98;;
4696;SDS011;2362;50.780;0.292;2023-08-21T13:27:00;9.95;;;1.95;;
4696;SDS011;2362;50.780;0.292;2023-08-21T13:29:25;8.80;;;1.73;;
4696;SDS011;2362;50.780;0.292;2023-08-21T13:31:51;9.85;;;1.83;;
4696;SDS011;2362;50.780;0.292;2023-08-21T13:34:16;4.85;;;1.20;;
4696;SDS011;2362;50.780;0.292;2023-08-21T13:36:42;16.42;;;2.00;;
4696;SDS011;2362;50.780;0.292;2023-08-21T13:39:08;8.35;;;1.85;;
4696;SDS011;2362;50.780;0.292;2023-08-21T13:41:36;6.30;;;1.98;;
4696;SDS011;2362;50.780;0.292;2023-08-21T13:44:02;9.63;;;1.67;;
4696;SDS011;2362;50.780;0.292;2023-08-21T13:46:28;8.38;;;1.90;;
4696;SDS011;2362;50.780;0.292;2023-08-21T13:48:54;9.15;;;1.67;;
4696;SDS011;2362;50.780;0.292;2023-08-21T13:51:19;8.45;;;2.00;;
4696;SDS011;2362;50.780;0.292;2023-08-21T13:53:45;12.38;;;1.80;;
4696;SDS011;2362;50.780;0.292;2023-08-21T13:56:10;6.18;;;1.42;;
4696;SDS011;2362;50.780;0.292;2023-08-21T13:58:36;13.73;;;2.00;;
4696;SDS011;2362;50.780;0.292;2023-08-21T14:01:02;8.88;;;1.63;;
4696;SDS011;2362;50.780;0.292;2023-08-21T14:03:28;10.10;;;1.80;;
4696;SDS011;2362;50.780;0.292;2023-08-21T14:05:53;7.75;;;1.77;;
4696;SDS011;2362;50.780;0.292;2023-08-21T14:08:19;10.05;;;1.60;;
4696;SDS011;2362;50.780;0.292;2023-08-21T14:10:45;12.43;;;1.95;;
4696;SDS011;2362;50.780;0.292;2023-08-21T14:13:10;10.13;;;1.63;;
4696;SDS011;2362;50.780;0.292;2023-08-21T14:15:37;10.13;;;1.92;;
4696;SDS011;2362;50.780;0.292;2023-08-21T14:18:02;5.70;;;1.50;;
4696;SDS011;2362;50.780;0.292;2023-08-21T14:20:29;9.13;;;1.92;;
4696;SDS011;2362;50.780;0.292;2023-08-21T14:22:55;8.13;;;1.35;;
4696;SDS011;2362;50.780;0.292;2023-08-21T14:25:21;11.95;;;1.95;;
4696;SDS011;2362;50.780;0.292;2023-08-21T14:27:47;8.80;;;2.15;;
4696;SDS011;2362;50.780;0.292;2023-08-21T14:30:14;6.90;;;1.85;;
4696;SDS011;2362;50.780;0.292;2023-08-21T14:32:39;7.78;;;1.83;;
4696;SDS011;2362;50.780;0.292;2023-08-21T14:35:07;6.40;;;1.52;;
4696;SDS011;2362;50.780;0.292;2023-08-21T14:37:33;8.13;;;1.92;;
4696;SDS011;2362;50.780;0.292;2023-08-21T14:39:59;8.55;;;2.00;;
4696;SDS011;2362;50.780;0.292;2023-08-21T14:42:25;9.40;;;1.60;;
4696;SDS011;2362;50.780;0.292;2023-08-21T14:44:50;11.02;;;1.73;;
4696;SDS011;2362;50.780;0.292;2023-08-21T14:47:16;8.52;;;1.85;;
4696;SDS011;2362;50.780;0.292;2023-08-21T14:49:42;9.63;;;2.13;;
4696;SDS011;2362;50.780;0.292;2023-08-21T14:52:07;7.35;;;1.80;;
4696;SDS011;2362;50.780;0.292;2023-08-21T14:54:33;11.35;;;1.85;;
4696;SDS011;2362;50.780;0.292;2023-08-21T14:57:00;9.98;;;1.85;;
4696;SDS011;2362;50.780;0.292;2023-08-21T14:59:26;9.80;;;2.10;;
4696;SDS011;2362;50.780;0.292;2023-08-21T15:01:52;7.45;;;1.52;;
4696;SDS011;2362;50.780;0.292;2023-08-21T15:04:19;4.35;;;1.67;;
4696;SDS011;2362;50.780;0.292;2023-08-21T15:06:44;8.88;;;1.85;;
4696;SDS011;2362;50.780;0.292;2023-08-21T15:09:10;3.65;;;1.38;;
4696;SDS011;2362;50.780;0.292;2023-08-21T15:11:36;9.27;;;2.05;;
4696;SDS011;2362;50.780;0.292;2023-08-21T15:14:02;6.65;;;1.90;;
4696;SDS011;2362;50.780;0.292;2023-08-21T15:16:28;9.27;;;1.77;;
4696;SDS011;2362;50.780;0.292;2023-08-21T15:18:54;7.68;;;1.38;;
4696;SDS011;2362;50.780;0.292;2023-08-21T15:21:38;5.35;;;1.08;;